sensor_id;sensor_type;location;lat;lon;timestamp;P1;durP1;ratioP1;P2;durP2;ratioP2
70414;SDS011;57837;52.064;113.478;2022-12-19T00:01:36;51.08;;;23.60;;
70414;SDS011;57837;52.064;113.478;2022-12-19T00:04:40;40.20;;;25.27;;
70414;SDS011;57837;52.064;113.478;2022-12-19T00:07:49;31.35;;;16.08;;
70414;SDS011;57837;52.064;113.478;2022-12-19T00:10:54;45.80;;;25.10;;
70414;SDS011;57837;52.064;113.478;2022-12-19T00:13:59;82.60;;;29.15;;
70414;SDS011;57837;52.064;113.478;2022-12-19T00:17:04;49.03;;;22.00;;
70414;SDS011;57837;52.064;113.478;2022-12-19T00:20:08;99.97;;;39.03;;
70414;SDS011;57837;52.064;113.478;2022-12-19T00:23:14;75.07;;;30.08;;
70414;SDS011;57837;52.064;113.478;2022-12-19T00:26:18;68.88;;;34.65;;
70414;SDS011;57837;52.064;113.478;2022-12-19T00:29:22;94.18;;;44.80;;
70414;SDS011;57837;52.064;113.478;2022-12-19T00:32:26;52.58;;;36.95;;
70414;SDS011;57837;52.064;113.478;2022-12-19T00:35:29;34.75;;;21.50;;
70414;SDS011;57837;52.064;113.478;2022-12-19T00:38:32;101.63;;;39.05;;
70414;SDS011;57837;52.064;113.478;2022-12-19T00:41:36;82.43;;;34.63;;
70414;SDS011;57837;52.064;113.478;2022-12-19T00:44:43;70.10;;;24.05;;
70414;SDS011;57837;52.064;113.478;2022-12-19T00:47:47;52.45;;;28.90;;
70414;SDS011;57837;52.064;113.478;2022-12-19T00:50:57;35.40;;;28.00;;
70414;SDS011;57837;52.064;113.478;2022-12-19T00:54:01;71.95;;;39.97;;
70414;SDS011;57837;52.064;113.478;2022-12-19T00:57:09;130.23;;;47.83;;
70414;SDS011;57837;52.064;113.478;2022-12-19T01:00:14;94.20;;;40.42;;
70414;SDS011;57837;52.064;113.478;2022-12-19T01:03:19;42.95;;;26.35;;
70414;SDS011;57837;52.064;113.478;2022-12-19T01:06:24;51.85;;;34.45;;
70414;SDS011;57837;52.064;113.478;2022-12-19T01:09:29;141.75;;;66.40;;
70414;SDS011;57837;52.064;113.478;2022-12-19T01:12:32;119.60;;;65.93;;
70414;SDS011;57837;52.064;113.478;2022-12-19T01:15:48;86.68;;;48.03;;
70414;SDS011;57837;52.064;113.478;2022-12-19T01:18:52;83.80;;;47.72;;
70414;SDS011;57837;52.064;113.478;2022-12-19T01:21:54;97.10;;;43.07;;
70414;SDS011;57837;52.064;113.478;2022-12-19T01:24:58;210.50;;;111.80;;
70414;SDS011;57837;52.064;113.478;2022-12-19T01:28:01;99.75;;;42.83;;
70414;SDS011;57837;52.064;113.478;2022-12-19T01:31:05;110.05;;;53.85;;
70414;SDS011;57837;52.064;113.478;2022-12-19T01:34:12;69.38;;;44.15;;
70414;SDS011;57837;52.064;113.478;2022-12-19T01:37:16;109.07;;;53.17;;
70414;SDS011;57837;52.064;113.478;2022-12-19T01:40:20;96.18;;;43.25;;
70414;SDS011;57837;52.064;113.478;2022-12-19T01:43:25;44.40;;;27.37;;
70414;SDS011;57837;52.064;113.478;2022-12-19T01:46:51;46.60;;;27.52;;
70414;SDS011;57837;52.064;113.478;2022-12-19T01:50:01;275.13;;;123.00;;
70414;SDS011;57837;52.064;113.478;2022-12-19T01:53:05;141.77;;;60.93;;
70414;SDS011;57837;52.064;113.478;2022-12-19T01:56:10;118.78;;;60.10;;
70414;SDS011;57837;52.064;113.478;2022-12-19T01:59:20;47.20;;;28.42;;
70414;SDS011;57837;52.064;113.478;2022-12-19T02:02:32;111.95;;;46.70;;
70414;SDS011;57837;52.064;113.478;2022-12-19T02:05:39;106.63;;;53.30;;
70414;SDS011;57837;52.064;113.478;2022-12-19T02:08:43;63.55;;;35.15;;
70414;SDS011;57837;52.064;113.478;2022-12-19T02:11:50;138.75;;;59.90;;
70414;SDS011;57837;52.064;113.478;2022-12-19T02:14:54;78.53;;;38.53;;
70414;SDS011;57837;52.064;113.478;2022-12-19T02:18:10;64.50;;;30.13;;
70414;SDS011;57837;52.064;113.478;2022-12-19T02:28:11;98.57;;;57.45;;
70414;SDS011;57837;52.064;113.478;2022-12-19T02:31:27;86.90;;;44.28;;
70414;SDS011;57837;52.064;113.478;2022-12-19T02:41:21;45.25;;;25.13;;
70414;SDS011;57837;52.064;113.478;2022-12-19T02:44:51;94.07;;;42.72;;
70414;SDS011;57837;52.064;113.478;2022-12-19T02:47:56;85.00;;;31.00;;
70414;SDS011;57837;52.064;113.478;2022-12-19T02:51:11;44.75;;;29.40;;
70414;SDS011;57837;52.064;113.478;2022-12-19T02:54:16;74.80;;;34.55;;
70414;SDS011;57837;52.064;113.478;2022-12-19T03:00:35;74.95;;;31.45;;
70414;SDS011;57837;52.064;113.478;2022-12-19T03:07:36;81.35;;;40.10;;
70414;SDS011;57837;52.064;113.478;2022-12-19T03:10:57;76.35;;;40.83;;
70414;SDS011;57837;52.064;113.478;2022-12-19T03:14:05;114.07;;;52.33;;
70414;SDS011;57837;52.064;113.478;2022-12-19T03:17:11;113.30;;;58.13;;
70414;SDS011;57837;52.064;113.478;2022-12-19T03:23:48;65.82;;;35.35;;
70414;SDS011;57837;52.064;113.478;2022-12-19T03:30:22;101.83;;;43.90;;
70414;SDS011;57837;52.064;113.478;2022-12-19T03:33:26;59.13;;;31.27;;
70414;SDS011;57837;52.064;113.478;2022-12-19T03:36:35;83.15;;;27.50;;
70414;SDS011;57837;52.064;113.478;2022-12-19T03:39:48;152.93;;;70.38;;
70414;SDS011;57837;52.064;113.478;2022-12-19T03:42:58;198.68;;;74.35;;
70414;SDS011;57837;52.064;113.478;2022-12-19T03:46:20;195.30;;;81.30;;
70414;SDS011;57837;52.064;113.478;2022-12-19T03:49:26;119.95;;;51.15;;
70414;SDS011;57837;52.064;113.478;2022-12-19T03:55:42;87.70;;;44.85;;
70414;SDS011;57837;52.064;113.478;2022-12-19T03:58:58;122.63;;;44.95;;
70414;SDS011;57837;52.064;113.478;2022-12-19T04:02:06;103.83;;;41.17;;
70414;SDS011;57837;52.064;113.478;2022-12-19T04:05:12;131.63;;;56.30;;
70414;SDS011;57837;52.064;113.478;2022-12-19T04:08:20;123.82;;;49.40;;
70414;SDS011;57837;52.064;113.478;2022-12-19T04:11:26;155.63;;;61.53;;
70414;SDS011;57837;52.064;113.478;2022-12-19T04:14:36;203.10;;;67.55;;
70414;SDS011;57837;52.064;113.478;2022-12-19T04:17:44;139.15;;;49.63;;
70414;SDS011;57837;52.064;113.478;2022-12-19T04:21:04;161.43;;;55.47;;
70414;SDS011;57837;52.064;113.478;2022-12-19T04:24:17;143.40;;;61.23;;
70414;SDS011;57837;52.064;113.478;2022-12-19T04:27:25;157.70;;;54.47;;
70414;SDS011;57837;52.064;113.478;2022-12-19T04:30:32;156.35;;;63.10;;
70414;SDS011;57837;52.064;113.478;2022-12-19T04:33:38;157.00;;;61.20;;
70414;SDS011;57837;52.064;113.478;2022-12-19T04:36:42;166.70;;;60.97;;
70414;SDS011;57837;52.064;113.478;2022-12-19T04:39:45;180.80;;;63.08;;
70414;SDS011;57837;52.064;113.478;2022-12-19T04:42:49;123.80;;;45.45;;
70414;SDS011;57837;52.064;113.478;2022-12-19T04:45:52;167.48;;;67.38;;
70414;SDS011;57837;52.064;113.478;2022-12-19T04:48:59;134.20;;;52.85;;
70414;SDS011;57837;52.064;113.478;2022-12-19T04:52:03;88.90;;;38.72;;
70414;SDS011;57837;52.064;113.478;2022-12-19T04:55:09;91.17;;;36.30;;
70414;SDS011;57837;52.064;113.478;2022-12-19T04:58:12;130.48;;;46.17;;
70414;SDS011;57837;52.064;113.478;2022-12-19T05:01:22;69.35;;;32.70;;
70414;SDS011;57837;52.064;113.478;2022-12-19T05:04:25;26.13;;;19.50;;
70414;SDS011;57837;52.064;113.478;2022-12-19T05:07:29;53.13;;;23.20;;
70414;SDS011;57837;52.064;113.478;2022-12-19T05:10:33;67.65;;;27.48;;
70414;SDS011;57837;52.064;113.478;2022-12-19T05:13:38;63.22;;;31.55;;
70414;SDS011;57837;52.064;113.478;2022-12-19T05:16:42;25.27;;;16.52;;
70414;SDS011;57837;52.064;113.478;2022-12-19T05:19:46;125.15;;;46.75;;
70414;SDS011;57837;52.064;113.478;2022-12-19T05:22:50;101.28;;;41.35;;
70414;SDS011;57837;52.064;113.478;2022-12-19T05:25:57;124.50;;;47.83;;
70414;SDS011;57837;52.064;113.478;2022-12-19T05:29:03;41.70;;;20.20;;
70414;SDS011;57837;52.064;113.478;2022-12-19T05:32:06;94.63;;;39.08;;
70414;SDS011;57837;52.064;113.478;2022-12-19T05:35:10;119.80;;;47.47;;
70414;SDS011;57837;52.064;113.478;2022-12-19T05:38:14;129.55;;;50.33;;
70414;SDS011;57837;52.064;113.478;2022-12-19T05:41:19;67.82;;;36.67;;
70414;SDS011;57837;52.064;113.478;2022-12-19T05:44:23;43.13;;;16.25;;
70414;SDS011;57837;52.064;113.478;2022-12-19T05:47:29;85.32;;;36.50;;
70414;SDS011;57837;52.064;113.478;2022-12-19T05:50:32;170.82;;;64.70;;
70414;SDS011;57837;52.064;113.478;2022-12-19T05:53:42;131.63;;;50.80;;
70414;SDS011;57837;52.064;113.478;2022-12-19T05:56:46;84.03;;;40.43;;
70414;SDS011;57837;52.064;113.478;2022-12-19T05:59:50;119.70;;;38.67;;
70414;SDS011;57837;52.064;113.478;2022-12-19T06:02:54;57.17;;;23.60;;
70414;SDS011;57837;52.064;113.478;2022-12-19T06:06:00;172.40;;;61.57;;
70414;SDS011;57837;52.064;113.478;2022-12-19T06:09:08;73.18;;;32.00;;
70414;SDS011;57837;52.064;113.478;2022-12-19T06:12:12;49.08;;;29.65;;
70414;SDS011;57837;52.064;113.478;2022-12-19T06:15:15;71.25;;;31.15;;
70414;SDS011;57837;52.064;113.478;2022-12-19T06:18:18;41.00;;;20.17;;
70414;SDS011;57837;52.064;113.478;2022-12-19T06:21:22;118.22;;;52.38;;
70414;SDS011;57837;52.064;113.478;2022-12-19T06:24:26;71.45;;;37.85;;
70414;SDS011;57837;52.064;113.478;2022-12-19T06:27:29;91.33;;;42.50;;
70414;SDS011;57837;52.064;113.478;2022-12-19T06:30:33;38.80;;;21.40;;
70414;SDS011;57837;52.064;113.478;2022-12-19T06:33:36;134.70;;;58.38;;
70414;SDS011;57837;52.064;113.478;2022-12-19T06:36:40;63.20;;;27.77;;
70414;SDS011;57837;52.064;113.478;2022-12-19T06:39:44;65.80;;;35.53;;
70414;SDS011;57837;52.064;113.478;2022-12-19T06:42:48;153.85;;;66.30;;
70414;SDS011;57837;52.064;113.478;2022-12-19T06:45:51;142.32;;;53.20;;
70414;SDS011;57837;52.064;113.478;2022-12-19T06:48:55;134.18;;;52.53;;
70414;SDS011;57837;52.064;113.478;2022-12-19T06:51:59;124.97;;;58.75;;
70414;SDS011;57837;52.064;113.478;2022-12-19T06:55:09;127.95;;;56.00;;
70414;SDS011;57837;52.064;113.478;2022-12-19T06:58:13;45.03;;;19.93;;
70414;SDS011;57837;52.064;113.478;2022-12-19T07:01:38;84.72;;;39.78;;
70414;SDS011;57837;52.064;113.478;2022-12-19T07:05:02;101.13;;;44.78;;
70414;SDS011;57837;52.064;113.478;2022-12-19T07:08:08;74.33;;;38.63;;
70414;SDS011;57837;52.064;113.478;2022-12-19T07:11:12;77.72;;;41.25;;
70414;SDS011;57837;52.064;113.478;2022-12-19T07:14:16;56.60;;;25.50;;
70414;SDS011;57837;52.064;113.478;2022-12-19T07:17:20;52.17;;;28.83;;
70414;SDS011;57837;52.064;113.478;2022-12-19T07:20:26;64.75;;;27.92;;
70414;SDS011;57837;52.064;113.478;2022-12-19T07:23:32;54.13;;;31.52;;
70414;SDS011;57837;52.064;113.478;2022-12-19T07:26:36;164.85;;;66.43;;
70414;SDS011;57837;52.064;113.478;2022-12-19T07:29:40;89.73;;;34.10;;
70414;SDS011;57837;52.064;113.478;2022-12-19T07:32:46;59.80;;;26.92;;
70414;SDS011;57837;52.064;113.478;2022-12-19T07:35:50;247.85;;;101.25;;
70414;SDS011;57837;52.064;113.478;2022-12-19T07:38:54;66.60;;;38.40;;
70414;SDS011;57837;52.064;113.478;2022-12-19T07:41:57;100.55;;;49.88;;
70414;SDS011;57837;52.064;113.478;2022-12-19T07:45:10;62.75;;;34.33;;
70414;SDS011;57837;52.064;113.478;2022-12-19T07:48:14;198.73;;;79.60;;
70414;SDS011;57837;52.064;113.478;2022-12-19T07:51:17;149.10;;;70.13;;
70414;SDS011;57837;52.064;113.478;2022-12-19T07:54:22;121.63;;;55.08;;
70414;SDS011;57837;52.064;113.478;2022-12-19T07:57:26;94.32;;;47.30;;
70414;SDS011;57837;52.064;113.478;2022-12-19T08:00:28;110.90;;;57.60;;
70414;SDS011;57837;52.064;113.478;2022-12-19T08:03:36;153.95;;;63.40;;
70414;SDS011;57837;52.064;113.478;2022-12-19T08:06:40;85.10;;;37.83;;
70414;SDS011;57837;52.064;113.478;2022-12-19T08:09:45;111.50;;;43.95;;
70414;SDS011;57837;52.064;113.478;2022-12-19T08:12:49;169.88;;;63.10;;
70414;SDS011;57837;52.064;113.478;2022-12-19T08:15:58;83.88;;;44.80;;
70414;SDS011;57837;52.064;113.478;2022-12-19T08:19:03;88.70;;;42.00;;
70414;SDS011;57837;52.064;113.478;2022-12-19T08:22:08;91.23;;;51.40;;
70414;SDS011;57837;52.064;113.478;2022-12-19T08:25:11;87.03;;;43.53;;
70414;SDS011;57837;52.064;113.478;2022-12-19T08:28:17;121.88;;;50.83;;
70414;SDS011;57837;52.064;113.478;2022-12-19T08:31:22;165.97;;;81.33;;
70414;SDS011;57837;52.064;113.478;2022-12-19T08:34:27;186.20;;;79.07;;
70414;SDS011;57837;52.064;113.478;2022-12-19T08:37:31;44.05;;;36.50;;
70414;SDS011;57837;52.064;113.478;2022-12-19T08:40:34;74.30;;;41.60;;
70414;SDS011;57837;52.064;113.478;2022-12-19T08:43:41;65.60;;;30.17;;
70414;SDS011;57837;52.064;113.478;2022-12-19T08:46:46;61.85;;;41.38;;
70414;SDS011;57837;52.064;113.478;2022-12-19T08:49:52;70.32;;;37.38;;
70414;SDS011;57837;52.064;113.478;2022-12-19T08:52:56;63.80;;;33.80;;
70414;SDS011;57837;52.064;113.478;2022-12-19T08:56:01;48.25;;;33.72;;
70414;SDS011;57837;52.064;113.478;2022-12-19T08:59:08;78.95;;;43.50;;
70414;SDS011;57837;52.064;113.478;2022-12-19T09:02:14;75.73;;;37.50;;
70414;SDS011;57837;52.064;113.478;2022-12-19T09:05:18;133.95;;;57.60;;
70414;SDS011;57837;52.064;113.478;2022-12-19T09:08:43;52.55;;;35.35;;
70414;SDS011;57837;52.064;113.478;2022-12-19T09:11:46;54.40;;;37.33;;
70414;SDS011;57837;52.064;113.478;2022-12-19T09:14:54;83.65;;;47.90;;
70414;SDS011;57837;52.064;113.478;2022-12-19T09:17:58;208.23;;;88.30;;
70414;SDS011;57837;52.064;113.478;2022-12-19T09:21:02;113.57;;;68.90;;
70414;SDS011;57837;52.064;113.478;2022-12-19T09:24:09;161.07;;;63.60;;
70414;SDS011;57837;52.064;113.478;2022-12-19T09:27:14;184.00;;;86.60;;
70414;SDS011;57837;52.064;113.478;2022-12-19T09:30:17;179.45;;;79.10;;
70414;SDS011;57837;52.064;113.478;2022-12-19T09:33:26;113.87;;;57.97;;
70414;SDS011;57837;52.064;113.478;2022-12-19T09:36:30;120.50;;;56.10;;
70414;SDS011;57837;52.064;113.478;2022-12-19T09:39:35;137.07;;;61.28;;
70414;SDS011;57837;52.064;113.478;2022-12-19T09:42:44;73.93;;;47.65;;
70414;SDS011;57837;52.064;113.478;2022-12-19T09:45:54;120.68;;;56.83;;
70414;SDS011;57837;52.064;113.478;2022-12-19T09:49:11;94.65;;;52.22;;
70414;SDS011;57837;52.064;113.478;2022-12-19T09:52:39;112.68;;;59.60;;
70414;SDS011;57837;52.064;113.478;2022-12-19T09:55:48;119.50;;;53.73;;
70414;SDS011;57837;52.064;113.478;2022-12-19T09:58:57;93.05;;;44.80;;
70414;SDS011;57837;52.064;113.478;2022-12-19T10:02:23;170.65;;;78.32;;
70414;SDS011;57837;52.064;113.478;2022-12-19T10:06:13;59.57;;;34.17;;
70414;SDS011;57837;52.064;113.478;2022-12-19T10:09:38;123.43;;;51.20;;
70414;SDS011;57837;52.064;113.478;2022-12-19T10:16:26;88.07;;;57.70;;
70414;SDS011;57837;52.064;113.478;2022-12-19T10:30:25;226.47;;;102.80;;
70414;SDS011;57837;52.064;113.478;2022-12-19T10:33:39;116.32;;;54.42;;
70414;SDS011;57837;52.064;113.478;2022-12-19T10:36:55;221.75;;;104.32;;
70414;SDS011;57837;52.064;113.478;2022-12-19T10:47:16;189.88;;;93.68;;
70414;SDS011;57837;52.064;113.478;2022-12-19T10:50:21;52.25;;;30.80;;
70414;SDS011;57837;52.064;113.478;2022-12-19T10:53:32;75.90;;;48.10;;
70414;SDS011;57837;52.064;113.478;2022-12-19T10:56:36;399.85;;;169.93;;
70414;SDS011;57837;52.064;113.478;2022-12-19T10:59:40;121.15;;;67.45;;
70414;SDS011;57837;52.064;113.478;2022-12-19T11:03:35;223.90;;;102.57;;
70414;SDS011;57837;52.064;113.478;2022-12-19T11:06:42;267.08;;;113.95;;
70414;SDS011;57837;52.064;113.478;2022-12-19T11:09:51;142.98;;;50.05;;
70414;SDS011;57837;52.064;113.478;2022-12-19T11:13:18;119.20;;;49.53;;
70414;SDS011;57837;52.064;113.478;2022-12-19T11:16:44;94.28;;;49.40;;
70414;SDS011;57837;52.064;113.478;2022-12-19T11:20:17;127.97;;;69.45;;
70414;SDS011;57837;52.064;113.478;2022-12-19T11:23:54;136.90;;;72.53;;
70414;SDS011;57837;52.064;113.478;2022-12-19T11:31:04;137.73;;;70.68;;
70414;SDS011;57837;52.064;113.478;2022-12-19T11:34:38;144.82;;;79.97;;
70414;SDS011;57837;52.064;113.478;2022-12-19T11:37:57;212.60;;;99.47;;
70414;SDS011;57837;52.064;113.478;2022-12-19T11:41:46;452.70;;;206.80;;
70414;SDS011;57837;52.064;113.478;2022-12-19T11:48:05;99.67;;;57.23;;
70414;SDS011;57837;52.064;113.478;2022-12-19T11:58:25;215.73;;;95.80;;
70414;SDS011;57837;52.064;113.478;2022-12-19T12:12:00;274.40;;;113.10;;
70414;SDS011;57837;52.064;113.478;2022-12-19T12:26:33;123.53;;;69.50;;
70414;SDS011;57837;52.064;113.478;2022-12-19T12:30:38;107.07;;;52.83;;
70414;SDS011;57837;52.064;113.478;2022-12-19T12:34:12;392.55;;;175.27;;
70414;SDS011;57837;52.064;113.478;2022-12-19T12:45:15;187.90;;;96.30;;
70414;SDS011;57837;52.064;113.478;2022-12-19T12:48:35;157.27;;;66.90;;
70414;SDS011;57837;52.064;113.478;2022-12-19T12:51:41;165.05;;;101.00;;
70414;SDS011;57837;52.064;113.478;2022-12-19T12:54:45;60.03;;;50.20;;
70414;SDS011;57837;52.064;113.478;2022-12-19T12:57:50;161.70;;;78.60;;
70414;SDS011;57837;52.064;113.478;2022-12-19T13:01:09;75.20;;;42.58;;
70414;SDS011;57837;52.064;113.478;2022-12-19T13:04:20;107.65;;;58.90;;
70414;SDS011;57837;52.064;113.478;2022-12-19T13:07:44;231.27;;;96.47;;
70414;SDS011;57837;52.064;113.478;2022-12-19T13:10:57;199.70;;;104.28;;
70414;SDS011;57837;52.064;113.478;2022-12-19T13:14:39;148.85;;;74.10;;
70414;SDS011;57837;52.064;113.478;2022-12-19T13:20:46;228.33;;;117.67;;
70414;SDS011;57837;52.064;113.478;2022-12-19T13:23:51;311.05;;;143.88;;
70414;SDS011;57837;52.064;113.478;2022-12-19T13:30:21;138.40;;;82.43;;
70414;SDS011;57837;52.064;113.478;2022-12-19T13:37:02;197.57;;;101.95;;
70414;SDS011;57837;52.064;113.478;2022-12-19T13:40:56;138.52;;;71.40;;
70414;SDS011;57837;52.064;113.478;2022-12-19T13:44:01;168.63;;;83.05;;
70414;SDS011;57837;52.064;113.478;2022-12-19T13:47:05;138.18;;;66.03;;
70414;SDS011;57837;52.064;113.478;2022-12-19T13:50:17;101.65;;;53.60;;
70414;SDS011;57837;52.064;113.478;2022-12-19T13:53:28;215.30;;;104.50;;
70414;SDS011;57837;52.064;113.478;2022-12-19T13:56:32;276.38;;;120.22;;
70414;SDS011;57837;52.064;113.478;2022-12-19T13:59:42;193.85;;;91.70;;
70414;SDS011;57837;52.064;113.478;2022-12-19T14:03:14;214.80;;;98.10;;
70414;SDS011;57837;52.064;113.478;2022-12-19T14:06:27;216.23;;;105.47;;
70414;SDS011;57837;52.064;113.478;2022-12-19T14:09:48;136.32;;;54.47;;
70414;SDS011;57837;52.064;113.478;2022-12-19T14:13:16;176.15;;;72.75;;
70414;SDS011;57837;52.064;113.478;2022-12-19T14:17:05;117.80;;;62.83;;
70414;SDS011;57837;52.064;113.478;2022-12-19T14:20:16;327.77;;;136.95;;
70414;SDS011;57837;52.064;113.478;2022-12-19T14:23:42;284.48;;;110.90;;
70414;SDS011;57837;52.064;113.478;2022-12-19T14:26:59;148.70;;;64.10;;
70414;SDS011;57837;52.064;113.478;2022-12-19T14:30:27;128.32;;;56.97;;
70414;SDS011;57837;52.064;113.478;2022-12-19T14:33:35;157.48;;;78.07;;
70414;SDS011;57837;52.064;113.478;2022-12-19T14:37:04;155.87;;;79.07;;
70414;SDS011;57837;52.064;113.478;2022-12-19T14:40:27;180.82;;;70.18;;
70414;SDS011;57837;52.064;113.478;2022-12-19T14:43:31;237.55;;;113.13;;
70414;SDS011;57837;52.064;113.478;2022-12-19T14:47:09;354.83;;;169.95;;
70414;SDS011;57837;52.064;113.478;2022-12-19T14:50:35;547.22;;;221.73;;
70414;SDS011;57837;52.064;113.478;2022-12-19T14:54:14;283.38;;;124.65;;
70414;SDS011;57837;52.064;113.478;2022-12-19T14:57:41;310.58;;;143.00;;
70414;SDS011;57837;52.064;113.478;2022-12-19T15:01:27;90.33;;;50.00;;
70414;SDS011;57837;52.064;113.478;2022-12-19T15:04:33;171.50;;;83.38;;
70414;SDS011;57837;52.064;113.478;2022-12-19T15:07:56;70.60;;;34.53;;
70414;SDS011;57837;52.064;113.478;2022-12-19T15:11:03;159.03;;;84.37;;
70414;SDS011;57837;52.064;113.478;2022-12-19T15:14:47;184.73;;;80.22;;
70414;SDS011;57837;52.064;113.478;2022-12-19T15:18:02;376.08;;;144.55;;
70414;SDS011;57837;52.064;113.478;2022-12-19T15:21:11;193.65;;;93.07;;
70414;SDS011;57837;52.064;113.478;2022-12-19T15:24:16;394.73;;;165.95;;
70414;SDS011;57837;52.064;113.478;2022-12-19T15:27:20;239.18;;;110.60;;
70414;SDS011;57837;52.064;113.478;2022-12-19T15:30:23;347.88;;;136.20;;
70414;SDS011;57837;52.064;113.478;2022-12-19T15:33:37;322.90;;;140.43;;
70414;SDS011;57837;52.064;113.478;2022-12-19T15:37:01;167.23;;;78.72;;
70414;SDS011;57837;52.064;113.478;2022-12-19T15:40:06;272.88;;;113.18;;
70414;SDS011;57837;52.064;113.478;2022-12-19T15:43:15;257.70;;;103.03;;
70414;SDS011;57837;52.064;113.478;2022-12-19T15:46:41;251.73;;;111.57;;
70414;SDS011;57837;52.064;113.478;2022-12-19T15:49:50;229.77;;;105.85;;
70414;SDS011;57837;52.064;113.478;2022-12-19T15:52:55;386.75;;;159.45;;
70414;SDS011;57837;52.064;113.478;2022-12-19T15:56:00;221.77;;;81.30;;
70414;SDS011;57837;52.064;113.478;2022-12-19T15:59:04;148.45;;;50.35;;
70414;SDS011;57837;52.064;113.478;2022-12-19T16:02:38;116.03;;;43.95;;
70414;SDS011;57837;52.064;113.478;2022-12-19T16:06:02;118.50;;;46.20;;
70414;SDS011;57837;52.064;113.478;2022-12-19T16:09:16;150.13;;;52.58;;
70414;SDS011;57837;52.064;113.478;2022-12-19T16:12:24;117.07;;;45.15;;
70414;SDS011;57837;52.064;113.478;2022-12-19T16:15:40;137.37;;;42.57;;
70414;SDS011;57837;52.064;113.478;2022-12-19T16:18:44;143.77;;;44.40;;
70414;SDS011;57837;52.064;113.478;2022-12-19T16:21:49;115.95;;;41.30;;
70414;SDS011;57837;52.064;113.478;2022-12-19T16:24:54;98.60;;;32.97;;
70414;SDS011;57837;52.064;113.478;2022-12-19T16:27:58;88.38;;;30.95;;
70414;SDS011;57837;52.064;113.478;2022-12-19T16:31:12;112.20;;;38.63;;
70414;SDS011;57837;52.064;113.478;2022-12-19T16:34:18;75.72;;;23.77;;
70414;SDS011;57837;52.064;113.478;2022-12-19T16:37:24;74.13;;;23.77;;
70414;SDS011;57837;52.064;113.478;2022-12-19T16:40:33;70.25;;;23.67;;
70414;SDS011;57837;52.064;113.478;2022-12-19T16:43:39;102.55;;;34.90;;
70414;SDS011;57837;52.064;113.478;2022-12-19T16:46:46;79.10;;;29.07;;
70414;SDS011;57837;52.064;113.478;2022-12-19T16:49:53;91.22;;;28.63;;
70414;SDS011;57837;52.064;113.478;2022-12-19T16:52:57;88.95;;;27.23;;
70414;SDS011;57837;52.064;113.478;2022-12-19T16:56:02;56.53;;;19.05;;
70414;SDS011;57837;52.064;113.478;2022-12-19T17:05:39;87.13;;;28.65;;
70414;SDS011;57837;52.064;113.478;2022-12-19T17:08:44;104.00;;;33.27;;
70414;SDS011;57837;52.064;113.478;2022-12-19T17:12:08;59.47;;;21.55;;
70414;SDS011;57837;52.064;113.478;2022-12-19T17:18:34;56.20;;;20.80;;
70414;SDS011;57837;52.064;113.478;2022-12-19T17:21:40;71.55;;;23.67;;
70414;SDS011;57837;52.064;113.478;2022-12-19T17:24:45;69.68;;;24.95;;
70414;SDS011;57837;52.064;113.478;2022-12-19T17:27:51;75.68;;;24.60;;
70414;SDS011;57837;52.064;113.478;2022-12-19T17:31:01;70.32;;;23.05;;
70414;SDS011;57837;52.064;113.478;2022-12-19T17:34:21;67.22;;;24.10;;
70414;SDS011;57837;52.064;113.478;2022-12-19T17:37:30;68.97;;;25.38;;
70414;SDS011;57837;52.064;113.478;2022-12-19T17:40:34;65.63;;;23.43;;
70414;SDS011;57837;52.064;113.478;2022-12-19T17:43:38;78.03;;;25.55;;
70414;SDS011;57837;52.064;113.478;2022-12-19T17:46:42;86.38;;;29.10;;
70414;SDS011;57837;52.064;113.478;2022-12-19T17:49:46;88.50;;;32.67;;
70414;SDS011;57837;52.064;113.478;2022-12-19T17:52:51;95.97;;;37.25;;
70414;SDS011;57837;52.064;113.478;2022-12-19T17:55:56;98.05;;;34.17;;
70414;SDS011;57837;52.064;113.478;2022-12-19T17:58:59;79.40;;;31.58;;
70414;SDS011;57837;52.064;113.478;2022-12-19T18:02:08;78.60;;;28.85;;
70414;SDS011;57837;52.064;113.478;2022-12-19T18:05:28;81.53;;;27.15;;
70414;SDS011;57837;52.064;113.478;2022-12-19T18:08:36;66.43;;;23.05;;
70414;SDS011;57837;52.064;113.478;2022-12-19T18:11:40;52.40;;;19.10;;
70414;SDS011;57837;52.064;113.478;2022-12-19T18:14:44;34.30;;;13.40;;
70414;SDS011;57837;52.064;113.478;2022-12-19T18:17:48;38.70;;;12.77;;
70414;SDS011;57837;52.064;113.478;2022-12-19T18:20:54;48.90;;;13.43;;
70414;SDS011;57837;52.064;113.478;2022-12-19T18:23:58;36.13;;;12.65;;
70414;SDS011;57837;52.064;113.478;2022-12-19T18:27:05;40.35;;;10.52;;
70414;SDS011;57837;52.064;113.478;2022-12-19T18:30:09;31.70;;;12.82;;
70414;SDS011;57837;52.064;113.478;2022-12-19T18:33:20;28.90;;;10.38;;
70414;SDS011;57837;52.064;113.478;2022-12-19T18:36:26;15.88;;;7.20;;
70414;SDS011;57837;52.064;113.478;2022-12-19T18:39:32;18.90;;;5.88;;
70414;SDS011;57837;52.064;113.478;2022-12-19T18:42:36;11.63;;;3.13;;
70414;SDS011;57837;52.064;113.478;2022-12-19T18:45:44;4.45;;;2.38;;
70414;SDS011;57837;52.064;113.478;2022-12-19T18:48:49;5.40;;;2.65;;
70414;SDS011;57837;52.064;113.478;2022-12-19T18:51:53;7.60;;;3.00;;
70414;SDS011;57837;52.064;113.478;2022-12-19T18:54:57;9.55;;;3.67;;
70414;SDS011;57837;52.064;113.478;2022-12-19T18:58:01;9.98;;;2.88;;
70414;SDS011;57837;52.064;113.478;2022-12-19T19:01:15;4.70;;;2.10;;
70414;SDS011;57837;52.064;113.478;2022-12-19T19:04:22;5.10;;;1.80;;
70414;SDS011;57837;52.064;113.478;2022-12-19T19:07:26;4.45;;;2.10;;
70414;SDS011;57837;52.064;113.478;2022-12-19T19:10:30;5.32;;;2.20;;
70414;SDS011;57837;52.064;113.478;2022-12-19T19:13:39;4.13;;;1.80;;
70414;SDS011;57837;52.064;113.478;2022-12-19T19:16:43;6.80;;;2.33;;
70414;SDS011;57837;52.064;113.478;2022-12-19T19:19:47;5.32;;;2.47;;
70414;SDS011;57837;52.064;113.478;2022-12-19T19:22:50;8.40;;;2.43;;
70414;SDS011;57837;52.064;113.478;2022-12-19T19:25:55;5.18;;;2.50;;
70414;SDS011;57837;52.064;113.478;2022-12-19T19:28:58;6.07;;;2.83;;
70414;SDS011;57837;52.064;113.478;2022-12-19T19:32:01;6.25;;;2.78;;
70414;SDS011;57837;52.064;113.478;2022-12-19T19:35:04;4.18;;;1.90;;
70414;SDS011;57837;52.064;113.478;2022-12-19T19:38:10;3.53;;;1.60;;
70414;SDS011;57837;52.064;113.478;2022-12-19T19:41:15;8.48;;;2.88;;
70414;SDS011;57837;52.064;113.478;2022-12-19T19:44:21;9.17;;;3.43;;
70414;SDS011;57837;52.064;113.478;2022-12-19T19:47:26;8.52;;;3.78;;